Latest Weather Observations for Rottnest Island

IDW60801

Issued at 4:34 pm WST Sunday 25 June 2017 (issued every 30 minutes, with the page automatically refreshed every 10 minutes)

About weather observations | Map of weather stations | Latest weather observations for WA | Other Formats
Station Details ID: 009193 Name: ROTTNEST ISLAND Lat: -32.01 Lon: 115.50 Height: 43.1 m
Data from the previous 72 hours. | See also: Recent months at Rottnest Island
Date/Time
WST
Temp
°C
App
Temp
°C
Dew
Point
°C
Rel
Hum
%
Delta-T
°C
Wind Press
QNH
hPa
Press
MSL
hPa
Rain since
9am
mm
Dir  Spd
km/h
Gust
km/h
Spd
kts
Gust
kts
25/04:30pm 14.7 10.3 5.0 52 4.5 SE 17 24 9 13 1026.4 1026.4 0.0
25/04:00pm 14.6 9.7 4.9 52 4.5 SSE 20 28 11 15 1026.1 1026.1 0.0
25/03:30pm 14.3 10.3 5.1 54 4.3 SE 15 19 8 10 1026.1 1026.1 0.0
25/03:00pm 15.0 11.7 6.3 56 4.2 SE 13 20 7 11 1025.9 1025.9 0.0
25/02:30pm 15.1 12.1 6.1 55 4.3 ESE 11 20 6 11 1025.7 1025.7 0.0
25/02:00pm 14.2 10.8 5.8 57 4.0 SE 13 19 7 10 1025.8 1025.8 0.0
25/01:30pm 14.5 12.1 6.8 60 3.7 SE 9 15 5 8 1026.2 1026.2 0.0
25/01:00pm 14.9 11.8 7.2 60 3.8 SE 13 19 7 10 1026.7 1026.7 0.0
25/12:30pm 14.4 11.2 6.7 60 3.7 ESE 13 19 7 10 1026.9 1026.9 0.0
25/12:00pm 14.1 10.9 6.7 61 3.6 ESE 13 20 7 11 1027.5 1027.5 0.0
25/11:30am 13.7 10.2 7.0 64 3.3 SE 15 24 8 13 1028.1 1028.1 0.0
25/11:00am 13.4 10.0 7.6 68 2.8 ESE 15 24 8 13 1028.3 1028.3 0.0
25/10:30am 12.9 8.9 6.7 66 3.0 ESE 17 24 9 13 1028.7 1028.7 0.0
25/10:00am 12.6 8.6 6.6 67 2.8 ESE 17 24 9 13 1028.7 1028.7 0.0
25/09:30am 12.3 8.0 7.0 70 2.6 ESE 19 26 10 14 1028.4 1028.4 0.0
25/09:00am 12.3 8.0 7.0 70 2.5 ESE 19 26 10 14 1028.1 1028.1 0.0
25/08:30am 12.2 8.3 7.1 71 2.5 ESE 17 24 9 13 1028.1 1028.1 0.0
25/08:00am 12.1 8.5 8.2 77 1.9 ESE 17 28 9 15 1027.8 1027.8 0.0
25/07:30am 12.4 8.2 7.5 72 2.4 ESE 19 26 10 14 1027.3 1027.3 0.0
25/07:00am 12.0 8.1 7.3 73 2.3 ESE 17 24 9 13 1026.9 1026.9 0.0
25/06:30am 11.8 7.9 7.3 74 2.2 SE 17 28 9 15 1026.7 1026.7 0.0
25/06:00am 11.7 7.6 7.8 77 1.9 SE 19 26 10 14 1026.5 1026.5 0.0
25/05:30am 11.6 6.4 7.3 75 2.1 SE 24 32 13 17 1026.3 1026.3 0.0
25/05:00am 11.4 7.1 7.1 75 2.0 ESE 19 28 10 15 1026.4 1026.4 0.0
25/04:30am 11.7 7.3 7.2 74 2.2 ESE 20 28 11 15 1026.3 1026.3 0.0
25/04:00am 12.1 7.6 7.0 71 2.4 ESE 20 32 11 17 1026.4 1026.4 0.0
25/03:30am 12.6 8.2 7.3 70 2.6 ESE 20 32 11 17 1026.4 1026.4 0.0
25/03:00am 12.2 7.9 7.9 75 2.1 ESE 20 28 11 15 1026.5 1026.5 0.0
25/02:30am 12.1 7.9 7.6 74 2.2 ESE 19 28 10 15 1026.6 1026.6 0.0
25/02:00am 12.4 8.1 7.9 74 2.2 ESE 20 33 11 18 1026.5 1026.5 0.0
25/01:30am 12.5 7.7 7.4 71 2.5 SE 22 33 12 18 1026.6 1026.6 0.0
25/01:00am 12.7 8.3 7.6 71 2.5 ESE 20 30 11 16 1026.7 1026.7 0.0
25/12:30am 12.8 8.4 7.5 70 2.6 ESE 20 28 11 15 1026.5 1026.5 0.0
25/12:00am 13.2 8.0 7.4 68 2.8 SE 24 33 13 18 1026.5 1026.5 0.0
 
Date/Time
WST
Temp
°C
App
Temp
°C
Dew
Point
°C
Rel
Hum
%
Delta-T
°C
Wind Press
QNH
hPa
Press
MSL
hPa
Rain since
9am
mm
Dir  Spd
km/h
Gust
km/h
Spd
kts
Gust
kts
24/11:30pm 13.5 7.6 7.3 66 3.0 SE 28 33 15 18 1026.5 1026.5 0.0
24/11:00pm 14.0 7.8 7.8 66 3.1 SE 30 37 16 20 1026.3 1026.3 0.0
24/10:30pm 14.4 8.8 7.2 62 3.5 SE 26 32 14 17 1026.2 1026.2 0.0
24/10:00pm 14.3 9.0 6.9 61 3.6 SE 24 33 13 18 1026.2 1026.2 0.0
24/09:30pm 14.7 8.6 6.8 59 3.9 SE 28 37 15 20 1025.8 1025.8 0.0
24/09:00pm 14.8 8.8 7.1 60 3.8 SE 28 35 15 19 1025.7 1025.7 0.0
24/08:30pm 15.0 8.4 6.0 55 4.3 SE 30 39 16 21 1025.5 1025.5 0.0
24/08:00pm 14.5 8.9 5.6 55 4.2 SE 24 33 13 18 1025.6 1025.6 0.0
24/07:30pm 14.5 9.4 5.8 56 4.1 SE 22 37 12 20 1025.4 1025.4 0.0
24/07:00pm 15.0 8.3 5.8 54 4.4 SE 30 39 16 21 1024.9 1024.9 0.0
24/06:30pm 15.3 7.8 6.3 55 4.4 SE 35 46 19 25 1024.6 1024.6 0.0
24/06:00pm 15.4 8.4 6.9 57 4.2 SE 33 43 18 23 1024.3 1024.3 0.0
24/05:30pm 15.7 8.8 7.2 57 4.2 SE 33 44 18 24 1023.8 1023.8 0.0
24/05:00pm 15.9 9.0 6.6 54 4.5 SE 32 43 17 23 1023.5 1023.5 0.0
24/04:30pm 16.1 10.2 7.3 56 4.4 SE 28 39 15 21 1023.4 1023.4 0.0
24/04:00pm 16.4 11.2 7.3 55 4.5 SE 24 32 13 17 1023.3 1023.3 0.0
24/03:30pm 16.5 11.2 6.9 53 4.8 SE 24 32 13 17 1023.2 1023.2 0.0
24/03:00pm 16.4 11.2 7.3 55 4.5 SE 24 35 13 19 1023.2 1023.2 0.0
24/02:30pm 16.4 11.1 6.8 53 4.7 SE 24 33 13 18 1023.2 1023.2 0.0
24/02:00pm 16.3 11.1 7.3 55 4.5 SE 24 32 13 17 1023.3 1023.3 0.0
24/01:30pm 16.5 12.2 7.7 56 4.4 SE 20 32 11 17 1023.5 1023.5 0.0
24/01:00pm 16.1 11.5 8.1 59 4.0 SE 22 30 12 16 1023.7 1023.7 0.0
24/12:30pm 15.9 11.2 7.9 59 4.0 SE 22 32 12 17 1024.0 1024.0 0.0
24/12:00pm 15.3 10.5 7.3 59 3.9 SE 22 30 12 16 1024.5 1024.5 0.0
24/11:30am 15.5 10.8 7.8 60 3.9 ESE 22 30 12 16 1025.1 1025.1 0.0
24/11:00am 15.0 10.2 7.3 60 3.8 SE 22 30 12 16 1025.4 1025.4 0.0
24/10:30am 14.1 8.9 7.2 63 3.4 SE 24 32 13 17 1025.8 1025.8 0.0
24/10:00am 13.9 9.4 7.0 63 3.3 SE 20 28 11 15 1026.0 1026.0 0.0
24/09:30am 13.5 8.7 7.3 66 3.0 SE 22 35 12 19 1026.0 1026.0 0.0
24/09:00am 13.2 8.0 7.2 67 2.9 SE 24 39 13 21 1025.8 1025.8 0.0
24/08:30am 12.7 7.1 7.0 68 2.8 SE 26 37 14 20 1025.6 1025.6 0.0
24/08:00am 12.3 7.8 6.8 69 2.6 SE 20 32 11 17 1025.5 1025.5 0.0
24/07:30am 12.2 7.9 6.9 70 2.5 ESE 19 28 10 15 1025.1 1025.1 0.0
24/07:00am 12.4 7.9 7.1 70 2.5 SE 20 32 11 17 1024.7 1024.7 0.0
24/06:30am 12.6 7.7 6.9 68 2.7 SE 22 32 12 17 1024.5 1024.5 0.0
24/06:00am 12.5 8.0 6.8 68 2.7 SE 20 30 11 16 1024.2 1024.2 0.0
24/05:30am 12.5 7.9 6.5 67 2.9 ESE 20 30 11 16 1023.9 1023.9 0.0
24/05:00am 12.7 7.8 6.7 67 2.9 ESE 22 32 12 17 1023.8 1023.8 0.0
24/04:30am 12.7 7.8 6.7 67 2.9 ESE 22 35 12 19 1024.0 1024.0 0.0
24/04:00am 12.9 8.4 6.9 67 2.9 ESE 20 33 11 18 1023.9 1023.9 0.0
24/03:30am 13.0 7.8 7.2 68 2.8 SE 24 35 13 19 1024.1 1024.1 0.0
24/03:00am 13.1 8.2 7.1 67 2.9 SE 22 33 12 18 1024.1 1024.1 0.0
24/02:30am 13.2 8.8 7.4 68 2.8 ESE 20 30 11 16 1024.2 1024.2 0.0
24/02:00am 13.1 7.6 7.5 69 2.7 ESE 26 37 14 20 1024.1 1024.1 0.0
24/01:30am 13.1 8.4 7.8 70 2.6 ESE 22 32 12 17 1024.0 1024.0 0.0
24/01:00am 13.2 8.5 7.9 70 2.6 ESE 22 35 12 19 1023.8 1023.8 0.0
24/12:30am 13.4 8.4 8.0 70 2.7 ESE 24 41 13 22 1023.9 1023.9 0.0
24/12:00am 13.6 8.3 8.4 71 2.6 ESE 26 41 14 22 1023.9 1023.9 0.0
 
Date/Time
WST
Temp
°C
App
Temp
°C
Dew
Point
°C
Rel
Hum
%
Delta-T
°C
Wind Press
QNH
hPa
Press
MSL
hPa
Rain since
9am
mm
Dir  Spd
km/h
Gust
km/h
Spd
kts
Gust
kts
23/11:30pm 14.1 8.9 8.9 71 2.6 ESE 26 39 14 21 1023.7 1023.7 0.0
23/11:00pm 14.4 8.7 9.8 74 2.4 SE 30 43 16 23 1023.4 1023.4 0.0
23/10:30pm 14.7 8.1 9.9 73 2.5 SE 35 48 19 26 1023.2 1023.2 0.0
23/10:16pm 14.6 9.0 10.0 74 2.4 SE 30 48 16 26 1023.0 1023.0 0.0
23/10:00pm 14.6 8.6 10.0 74 2.4 SE 32 46 17 25 1023.0 1023.0 0.0
23/09:30pm 14.8 8.3 10.2 74 2.4 SE 35 54 19 29 1022.8 1022.8 0.0
23/09:06pm 15.0 8.5 10.4 74 2.4 SE 35 54 19 29 1022.4 1022.4 0.0
23/09:00pm 15.1 8.0 10.9 76 2.2 SE 39 52 21 28 1022.5 1022.5 0.0
23/08:30pm 15.3 8.1 10.7 74 2.4 SE 39 54 21 29 1022.3 1022.3 0.0
23/08:00pm 15.3 9.3 10.9 75 2.3 SE 33 52 18 28 1022.3 1022.3 0.0
23/07:58pm 15.3 9.0 10.9 75 2.3 SE 35 54 19 29 1022.3 1022.3 0.0
23/07:30pm 15.7 8.9 11.9 78 2.1 SE 39 48 21 26 1021.7 1021.7 0.0
23/07:00pm 16.3 9.1 11.9 75 2.4 SE 41 50 22 27 1021.3 1021.3 0.0
23/06:30pm 16.9 12.0 11.2 69 3.1 SE 28 39 15 21 1021.4 1021.4 0.0
23/06:00pm 17.1 13.2 10.7 66 3.4 ESE 22 32 12 17 1021.1 1021.1 0.0
23/05:30pm 17.4 13.4 10.5 64 3.7 ESE 22 33 12 18 1020.5 1020.5 0.0
23/05:00pm 17.7 13.5 11.0 65 3.6 ESE 24 35 13 19 1020.1 1020.1 0.0
23/04:30pm 17.7 13.4 10.8 64 3.7 ESE 24 35 13 19 1019.8 1019.7 0.0
23/04:00pm 18.1 14.7 11.2 64 3.7 ESE 20 32 11 17 1019.6 1019.5 0.0
23/03:30pm 17.8 13.5 10.9 64 3.7 ESE 24 39 13 21 1019.3 1019.2 0.0
23/03:00pm 17.9 12.9 10.8 63 3.8 ESE 28 39 15 21 1019.2 1019.1 0.0
23/02:46pm 18.0 12.9 10.6 62 4.0 ESE 28 46 15 25 1019.0 1018.9 0.0
23/02:30pm 18.1 13.1 11.0 63 3.8 ESE 28 43 15 23 1019.0 1018.9 0.0
23/02:00pm 17.5 12.5 11.1 66 3.5 ESE 28 43 15 23 1018.8 1018.7 0.0
23/01:30pm 17.5 11.8 11.1 66 3.5 ESE 32 50 17 27 1018.9 1018.8 0.0
23/01:05pm 17.4 12.0 11.0 66 3.5 ESE 30 50 16 27 1019.0 1018.9 0.0
23/01:00pm 17.4 12.1 11.4 68 3.3 ESE 30 44 16 24 1019.0 1018.9 0.0
23/12:30pm 16.4 10.6 10.9 70 2.9 ESE 32 54 17 29 1019.2 1019.1 0.0
23/12:07pm 16.9 12.2 12.0 73 2.7 ESE 28 46 15 25 1019.6 1019.5 0.0
23/12:00pm 16.7 11.4 11.4 71 2.9 ESE 30 43 16 23 1019.6 1019.5 0.0
23/11:30am 16.7 11.8 11.2 70 3.0 ESE 28 43 15 23 1019.9 1019.8 0.0
23/11:00am 16.2 11.3 11.4 73 2.6 SE 28 41 15 22 1019.9 1019.8 0.0
23/10:30am 15.7 10.5 11.7 77 2.2 SE 30 48 16 26 1019.6 1019.5 0.0
23/10:13am 15.6 10.1 11.8 78 2.1 SE 32 50 17 27 1019.5 1019.4 0.0
23/10:00am 15.5 9.8 11.7 78 2.1 SE 33 48 18 26 1019.4 1019.3 0.0
23/09:32am 15.3 9.7 11.5 78 2.0 SE 32 52 17 28 1019.2 1019.1 0.0
23/09:30am 15.4 10.3 11.8 79 2.0 SE 30 46 16 25 1019.4 1019.3 0.0
23/09:09am 14.8 10.0 11.8 82 1.6 ESE 28 46 15 25 1019.0 1018.9 0.0
23/09:00am 14.5 9.3 11.7 83 1.5 ESE 30 39 16 21 1019.0 1018.9 0.2
23/08:33am 15.1 9.4 11.9 81 1.7 SE 33 52 18 28 1018.4 1018.3 0.2
23/08:30am 15.0 8.9 11.6 80 1.8 SE 35 52 19 28 1018.2 1018.1 0.2
23/08:20am 14.8 9.0 11.6 81 1.7 SE 33 52 18 28 1017.9 1017.8 0.2
23/08:00am 14.9 9.3 11.5 80 1.8 SE 32 48 17 26 1017.7 1017.6 0.2
23/07:31am 14.8 7.9 11.6 81 1.7 SE 39 57 21 31 1017.0 1016.9 0.2
23/07:30am 14.9 7.7 11.9 82 1.6 SE 41 57 22 31 1016.9 1016.8 0.2
23/07:00am 14.8 8.0 11.8 82 1.6 SE 39 56 21 30 1016.5 1016.4 0.2
23/06:30am 14.7 8.6 11.7 82 1.6 SE 35 56 19 30 1015.9 1015.8 0.2
23/06:22am 14.7 8.2 11.8 83 1.6 SE 37 56 20 30 1015.6 1015.5 0.2
23/06:00am 14.6 6.8 11.9 84 1.5 SE 44 56 24 30 1015.3 1015.2 0.2
23/05:30am 14.5 5.6 12.0 85 1.4 SE 50 63 27 34 1014.4 1014.3 0.2
23/05:00am 14.3 4.7 12.2 87 1.1 SE 54 69 29 37 1013.8 1013.7 0.2
23/04:53am 14.6 5.8 12.3 86 1.3 SE 50 69 27 37 1013.6 1013.5 0.2
23/04:30am 14.3 5.5 12.2 87 1.1 SE 50 61 27 33 1013.7 1013.6 0.2
23/04:00am 14.8 5.4 11.6 81 1.7 SE 52 65 28 35 1013.3 1013.2 0.2
23/03:30am 14.6 5.6 11.7 83 1.6 SE 50 65 27 35 1013.0 1012.9 0.2
23/03:00am 14.6 5.7 11.9 84 1.5 SE 50 65 27 35 1012.9 1012.8 0.2
23/02:30am 14.6 4.6 12.1 85 1.4 SE 56 74 30 40 1012.4 1012.3 0.2
23/02:00am 14.6 5.3 11.9 84 1.5 SE 52 70 28 38 1012.3 1012.2 0.2
23/01:47am 14.7 5.9 12.2 85 1.4 SSE 50 69 27 37 1012.2 1012.1 0.2
23/01:30am 14.9 6.0 12.0 83 1.6 SE 50 65 27 35 1011.8 1011.7 0.2
23/01:00am 14.9 5.2 11.7 81 1.7 SSE 54 72 29 39 1011.6 1011.5 0.2
23/12:30am 15.1 4.2 12.1 82 1.6 SSE 61 80 33 43 1011.1 1011.0 0.2
23/12:03am 14.9 3.6 12.0 83 1.6 SSE 63 82 34 44 1010.9 1010.8 0.2
23/12:00am 15.1 3.5 12.4 84 1.5 SSE 65 80 35 43 1010.9 1010.8 0.2
 
Date/Time
WST
Temp
°C
App
Temp
°C
Dew
Point
°C
Rel
Hum
%
Delta-T
°C
Wind Press
QNH
hPa
Press
MSL
hPa
Rain since
9am
mm
Dir  Spd
km/h
Gust
km/h
Spd
kts
Gust
kts
22/11:31pm 15.2 2.8 12.2 82 1.6 SSE 69 87 37 47 1010.7 1010.6 0.2
22/11:30pm 15.1 2.3 11.7 80 1.8 SSE 70 87 38 47 1009.9 1009.8 0.2
22/11:00pm 15.4 2.8 11.6 78 2.1 SSE 69 89 37 48 1010.1 1010.0 0.2
22/10:30pm 15.6 3.4 11.6 77 2.2 SSE 67 87 36 47 1010.2 1010.1 0.2
22/10:00pm 15.6 3.7 11.4 76 2.3 SSE 65 83 35 45 1011.0 1010.9 0.2
22/09:39pm 15.9 4.3 11.1 73 2.6 S 63 87 34 47 1010.6 1010.5 0.2
22/09:30pm 16.0 5.0 12.0 77 2.2 S 61 76 33 41 1010.8 1010.7 0.2
22/09:00pm 15.8 5.2 11.8 77 2.2 S 59 78 32 42 1010.7 1010.6 0.2
22/08:30pm 15.5 2.9 11.7 78 2.1 S 69 95 37 51 1010.6 1010.5 0.2
22/08:03pm 15.5 3.7 11.7 78 2.1 S 65 85 35 46 1010.0 1009.9 0.2
22/08:00pm 15.6 4.0 12.4 81 1.8 S 65 80 35 43 1010.3 1010.2 0.2
22/07:30pm 14.8 3.3 11.6 81 1.7 S 63 83 34 45 1010.1 1010.0 0.0
22/07:00pm 14.9 3.3 11.3 79 1.9 SSE 63 83 34 45 1010.7 1010.6 0.0
22/06:36pm 15.7 5.3 11.3 75 2.4 SSE 57 76 31 41 1010.8 1010.7 0.0
22/06:30pm 15.3 4.3 10.7 74 2.4 S 59 76 32 41 1010.3 1010.2 0.0
22/06:03pm 16.1 3.8 10.0 67 3.2 S 65 83 35 45 1010.0 1009.9 0.0
22/06:00pm 16.2 3.9 10.1 67 3.2 S 65 80 35 43 1009.9 1009.8 0.0
22/05:30pm 16.8 6.8 10.6 67 3.3 S 54 78 29 42 1009.6 1009.5 0.0
22/05:29pm 17.0 7.8 10.8 67 3.3 S 50 69 27 37 1010.4 1010.3 0.0
22/05:00pm 16.9 7.7 11.0 68 3.2 S 50 61 27 33 1010.2 1010.1 0.0
22/04:48pm 16.9 8.6 11.4 70 3.0 S 46 65 25 35 1010.1 1010.0 0.0

Other Formats:

Comma delimited format used in spreadsheet applications
http://www.bom.gov.au/fwo/IDW60801/IDW60801.94602.axf

JavaScript Object Notation format (JSON) in row-major order
http://www.bom.gov.au/fwo/IDW60801/IDW60801.94602.json